Bucks Bar, California
Current Conditions -  °F | °C
As of 2:15 PM on Saturday 20 Dec 2014 (Local Time) from KPVF Reporting Station
Broken Clouds Broken Clouds  
Wind Chill: 48°   Ceiling: 700
Heat Index: 48°   Visibility: 2.5mi
Dew Point: 48°   Wind: 0mph
Humidity: 100%   Direction: NA
Pressure: 30.22"   Gusts: NA
Location:  38.7308°N, 120.774°W
Report Text: KPVF 202215Z AUTO 00000KT 2 1/2SM SCT002 BKN007 BKN017 09/09 A3022 RMK AO1 VSBY 1 1/4V5
Loading
Personal Weather Stations






























Interactive Weather Map New forecast layout! Learn more

10-Day Weather Forecast

Advertisements
Track Severe Weather on mobile